sensor_id;sensor_type;location;lat;lon;timestamp;P1;durP1;ratioP1;P2;durP2;ratioP2
26211;SDS011;13951;49.516;6.094;2023-03-03T00:00:36;11.17;;;5.97;;
26211;SDS011;13951;49.516;6.094;2023-03-03T00:03:09;12.00;;;5.10;;
26211;SDS011;13951;49.516;6.094;2023-03-03T00:05:43;11.50;;;5.53;;
26211;SDS011;13951;49.516;6.094;2023-03-03T00:08:16;13.70;;;5.77;;
26211;SDS011;13951;49.516;6.094;2023-03-03T00:10:49;11.27;;;5.63;;
26211;SDS011;13951;49.516;6.094;2023-03-03T00:13:24;15.50;;;5.37;;
26211;SDS011;13951;49.516;6.094;2023-03-03T00:16:10;11.50;;;5.47;;
26211;SDS011;13951;49.516;6.094;2023-03-03T00:18:45;13.40;;;5.13;;
26211;SDS011;13951;49.516;6.094;2023-03-03T00:21:23;10.17;;;5.60;;
26211;SDS011;13951;49.516;6.094;2023-03-03T00:24:02;9.97;;;4.90;;
26211;SDS011;13951;49.516;6.094;2023-03-03T00:26:47;10.73;;;5.67;;
26211;SDS011;13951;49.516;6.094;2023-03-03T00:34:42;9.03;;;4.70;;
26211;SDS011;13951;49.516;6.094;2023-03-03T00:37:21;8.50;;;4.83;;
26211;SDS011;13951;49.516;6.094;2023-03-03T00:40:10;11.30;;;5.80;;
26211;SDS011;13951;49.516;6.094;2023-03-03T00:42:48;7.30;;;4.63;;
26211;SDS011;13951;49.516;6.094;2023-03-03T00:51:16;9.07;;;4.77;;
26211;SDS011;13951;49.516;6.094;2023-03-03T00:53:52;11.63;;;5.33;;
26211;SDS011;13951;49.516;6.094;2023-03-03T00:56:26;10.73;;;4.90;;
26211;SDS011;13951;49.516;6.094;2023-03-03T00:58:58;15.90;;;4.97;;
26211;SDS011;13951;49.516;6.094;2023-03-03T01:01:33;9.93;;;5.20;;
26211;SDS011;13951;49.516;6.094;2023-03-03T01:04:06;14.07;;;5.70;;
26211;SDS011;13951;49.516;6.094;2023-03-03T01:06:39;10.33;;;5.50;;
26211;SDS011;13951;49.516;6.094;2023-03-03T01:09:12;8.37;;;4.80;;
26211;SDS011;13951;49.516;6.094;2023-03-03T01:11:44;10.50;;;4.90;;
26211;SDS011;13951;49.516;6.094;2023-03-03T01:14:18;10.93;;;5.30;;
26211;SDS011;13951;49.516;6.094;2023-03-03T01:16:51;10.43;;;4.60;;
26211;SDS011;13951;49.516;6.094;2023-03-03T01:19:23;12.47;;;5.17;;
26211;SDS011;13951;49.516;6.094;2023-03-03T01:21:56;10.07;;;5.20;;
26211;SDS011;13951;49.516;6.094;2023-03-03T01:24:29;10.07;;;5.40;;
26211;SDS011;13951;49.516;6.094;2023-03-03T01:27:02;11.23;;;5.23;;
26211;SDS011;13951;49.516;6.094;2023-03-03T01:29:34;11.83;;;5.53;;
26211;SDS011;13951;49.516;6.094;2023-03-03T01:32:07;12.87;;;5.40;;
26211;SDS011;13951;49.516;6.094;2023-03-03T01:34:40;12.10;;;4.87;;
26211;SDS011;13951;49.516;6.094;2023-03-03T01:37:13;10.83;;;5.60;;
26211;SDS011;13951;49.516;6.094;2023-03-03T01:39:52;9.63;;;5.23;;
26211;SDS011;13951;49.516;6.094;2023-03-03T01:42:26;9.97;;;5.60;;
26211;SDS011;13951;49.516;6.094;2023-03-03T01:48:03;9.07;;;4.77;;
26211;SDS011;13951;49.516;6.094;2023-03-03T01:50:46;7.90;;;4.90;;
26211;SDS011;13951;49.516;6.094;2023-03-03T01:53:26;12.63;;;5.27;;
26211;SDS011;13951;49.516;6.094;2023-03-03T01:56:04;10.73;;;4.67;;
26211;SDS011;13951;49.516;6.094;2023-03-03T01:58:43;12.03;;;5.33;;
26211;SDS011;13951;49.516;6.094;2023-03-03T02:01:26;10.83;;;5.40;;
26211;SDS011;13951;49.516;6.094;2023-03-03T02:04:03;11.40;;;5.60;;
26211;SDS011;13951;49.516;6.094;2023-03-03T02:06:37;11.17;;;4.80;;
26211;SDS011;13951;49.516;6.094;2023-03-03T02:09:26;8.67;;;4.80;;
26211;SDS011;13951;49.516;6.094;2023-03-03T02:12:22;10.10;;;5.30;;
26211;SDS011;13951;49.516;6.094;2023-03-03T02:15:10;9.67;;;4.97;;
26211;SDS011;13951;49.516;6.094;2023-03-03T02:18:10;8.83;;;4.73;;
26211;SDS011;13951;49.516;6.094;2023-03-03T02:20:49;11.07;;;5.40;;
26211;SDS011;13951;49.516;6.094;2023-03-03T02:26:49;9.03;;;4.47;;
26211;SDS011;13951;49.516;6.094;2023-03-03T02:29:21;9.47;;;4.90;;
26211;SDS011;13951;49.516;6.094;2023-03-03T02:31:54;9.80;;;5.03;;
26211;SDS011;13951;49.516;6.094;2023-03-03T02:34:27;11.93;;;5.07;;
26211;SDS011;13951;49.516;6.094;2023-03-03T02:37:01;7.47;;;4.63;;
26211;SDS011;13951;49.516;6.094;2023-03-03T02:39:35;10.43;;;4.70;;
26211;SDS011;13951;49.516;6.094;2023-03-03T02:42:12;12.82;;;6.43;;
26211;SDS011;13951;49.516;6.094;2023-03-03T02:44:55;9.90;;;5.10;;
26211;SDS011;13951;49.516;6.094;2023-03-03T02:47:28;9.70;;;4.83;;
26211;SDS011;13951;49.516;6.094;2023-03-03T02:50:01;10.50;;;4.53;;
26211;SDS011;13951;49.516;6.094;2023-03-03T02:52:33;12.53;;;5.40;;
26211;SDS011;13951;49.516;6.094;2023-03-03T02:55:07;10.90;;;4.73;;
26211;SDS011;13951;49.516;6.094;2023-03-03T02:57:40;10.10;;;4.83;;
26211;SDS011;13951;49.516;6.094;2023-03-03T03:00:13;8.50;;;4.47;;
26211;SDS011;13951;49.516;6.094;2023-03-03T03:02:46;9.10;;;5.47;;
26211;SDS011;13951;49.516;6.094;2023-03-03T03:05:19;12.90;;;5.03;;
26211;SDS011;13951;49.516;6.094;2023-03-03T03:07:52;10.77;;;4.87;;
26211;SDS011;13951;49.516;6.094;2023-03-03T03:10:25;9.60;;;5.10;;
26211;SDS011;13951;49.516;6.094;2023-03-03T03:12:58;10.57;;;4.93;;
26211;SDS011;13951;49.516;6.094;2023-03-03T03:15:31;8.47;;;4.70;;
26211;SDS011;13951;49.516;6.094;2023-03-03T03:18:04;9.77;;;4.70;;
26211;SDS011;13951;49.516;6.094;2023-03-03T03:20:38;8.80;;;4.47;;
26211;SDS011;13951;49.516;6.094;2023-03-03T03:23:14;8.00;;;4.33;;
26211;SDS011;13951;49.516;6.094;2023-03-03T03:25:47;10.13;;;4.43;;
26211;SDS011;13951;49.516;6.094;2023-03-03T03:28:28;8.97;;;4.50;;
26211;SDS011;13951;49.516;6.094;2023-03-03T03:31:02;9.10;;;4.87;;
26211;SDS011;13951;49.516;6.094;2023-03-03T03:33:35;10.53;;;4.43;;
26211;SDS011;13951;49.516;6.094;2023-03-03T03:36:09;12.27;;;4.97;;
26211;SDS011;13951;49.516;6.094;2023-03-03T03:38:42;9.37;;;4.40;;
26211;SDS011;13951;49.516;6.094;2023-03-03T03:41:15;7.87;;;3.83;;
26211;SDS011;13951;49.516;6.094;2023-03-03T03:43:48;8.37;;;4.57;;
26211;SDS011;13951;49.516;6.094;2023-03-03T03:46:21;13.10;;;4.63;;
26211;SDS011;13951;49.516;6.094;2023-03-03T03:48:54;8.40;;;4.47;;
26211;SDS011;13951;49.516;6.094;2023-03-03T03:51:27;8.37;;;4.03;;
26211;SDS011;13951;49.516;6.094;2023-03-03T03:54:00;12.80;;;5.47;;
26211;SDS011;13951;49.516;6.094;2023-03-03T03:56:32;8.23;;;4.93;;
26211;SDS011;13951;49.516;6.094;2023-03-03T03:59:06;11.90;;;4.83;;
26211;SDS011;13951;49.516;6.094;2023-03-03T04:01:41;7.17;;;4.13;;
26211;SDS011;13951;49.516;6.094;2023-03-03T04:04:13;11.87;;;4.83;;
26211;SDS011;13951;49.516;6.094;2023-03-03T04:06:47;7.07;;;4.13;;
26211;SDS011;13951;49.516;6.094;2023-03-03T04:09:20;9.23;;;4.93;;
26211;SDS011;13951;49.516;6.094;2023-03-03T04:11:53;8.33;;;4.67;;
26211;SDS011;13951;49.516;6.094;2023-03-03T04:14:26;7.50;;;4.43;;
26211;SDS011;13951;49.516;6.094;2023-03-03T04:16:59;8.00;;;3.77;;
26211;SDS011;13951;49.516;6.094;2023-03-03T04:19:32;9.43;;;4.47;;
26211;SDS011;13951;49.516;6.094;2023-03-03T04:22:04;9.43;;;4.50;;
26211;SDS011;13951;49.516;6.094;2023-03-03T04:24:39;7.33;;;4.07;;
26211;SDS011;13951;49.516;6.094;2023-03-03T04:27:12;9.80;;;4.53;;
26211;SDS011;13951;49.516;6.094;2023-03-03T04:29:46;7.13;;;4.07;;
26211;SDS011;13951;49.516;6.094;2023-03-03T04:32:20;7.13;;;3.93;;
26211;SDS011;13951;49.516;6.094;2023-03-03T04:34:52;6.57;;;4.10;;
26211;SDS011;13951;49.516;6.094;2023-03-03T04:37:38;7.67;;;4.13;;
26211;SDS011;13951;49.516;6.094;2023-03-03T04:40:12;9.00;;;4.63;;
26211;SDS011;13951;49.516;6.094;2023-03-03T04:42:47;7.03;;;3.80;;
26211;SDS011;13951;49.516;6.094;2023-03-03T04:45:19;9.77;;;4.30;;
26211;SDS011;13951;49.516;6.094;2023-03-03T04:47:53;9.43;;;4.23;;
26211;SDS011;13951;49.516;6.094;2023-03-03T04:50:26;7.20;;;4.40;;
26211;SDS011;13951;49.516;6.094;2023-03-03T04:52:59;8.67;;;5.07;;
26211;SDS011;13951;49.516;6.094;2023-03-03T04:55:34;8.27;;;4.03;;
26211;SDS011;13951;49.516;6.094;2023-03-03T04:58:09;4.43;;;3.70;;
26211;SDS011;13951;49.516;6.094;2023-03-03T05:00:47;7.30;;;4.03;;
26211;SDS011;13951;49.516;6.094;2023-03-03T05:03:25;6.93;;;3.93;;
26211;SDS011;13951;49.516;6.094;2023-03-03T05:05:58;8.57;;;3.97;;
26211;SDS011;13951;49.516;6.094;2023-03-03T05:08:31;7.53;;;4.33;;
26211;SDS011;13951;49.516;6.094;2023-03-03T05:11:04;7.07;;;4.00;;
26211;SDS011;13951;49.516;6.094;2023-03-03T05:13:37;5.97;;;4.27;;
26211;SDS011;13951;49.516;6.094;2023-03-03T05:16:10;9.30;;;4.10;;
26211;SDS011;13951;49.516;6.094;2023-03-03T05:18:43;8.40;;;4.47;;
26211;SDS011;13951;49.516;6.094;2023-03-03T05:21:16;7.87;;;4.10;;
26211;SDS011;13951;49.516;6.094;2023-03-03T05:23:49;8.83;;;4.40;;
26211;SDS011;13951;49.516;6.094;2023-03-03T05:26:22;8.47;;;3.93;;
26211;SDS011;13951;49.516;6.094;2023-03-03T05:28:54;11.20;;;4.63;;
26211;SDS011;13951;49.516;6.094;2023-03-03T05:31:27;13.80;;;6.85;;
26211;SDS011;13951;49.516;6.094;2023-03-03T05:34:00;10.97;;;4.87;;
26211;SDS011;13951;49.516;6.094;2023-03-03T05:36:33;8.57;;;4.93;;
26211;SDS011;13951;49.516;6.094;2023-03-03T05:39:06;6.67;;;4.10;;
26211;SDS011;13951;49.516;6.094;2023-03-03T05:41:38;7.37;;;4.03;;
26211;SDS011;13951;49.516;6.094;2023-03-03T05:44:11;6.30;;;4.37;;
26211;SDS011;13951;49.516;6.094;2023-03-03T05:46:44;8.90;;;4.87;;
26211;SDS011;13951;49.516;6.094;2023-03-03T05:49:17;7.83;;;4.30;;
26211;SDS011;13951;49.516;6.094;2023-03-03T05:51:49;7.83;;;4.43;;
26211;SDS011;13951;49.516;6.094;2023-03-03T05:54:22;8.80;;;3.83;;
26211;SDS011;13951;49.516;6.094;2023-03-03T05:56:55;7.10;;;4.07;;
26211;SDS011;13951;49.516;6.094;2023-03-03T05:59:28;5.97;;;3.83;;
26211;SDS011;13951;49.516;6.094;2023-03-03T06:02:01;7.43;;;3.83;;
26211;SDS011;13951;49.516;6.094;2023-03-03T06:04:34;6.00;;;3.97;;
26211;SDS011;13951;49.516;6.094;2023-03-03T06:07:09;8.47;;;4.57;;
26211;SDS011;13951;49.516;6.094;2023-03-03T06:09:42;7.43;;;4.30;;
26211;SDS011;13951;49.516;6.094;2023-03-03T06:12:15;8.93;;;3.73;;
26211;SDS011;13951;49.516;6.094;2023-03-03T06:14:48;9.20;;;4.20;;
26211;SDS011;13951;49.516;6.094;2023-03-03T06:17:21;7.93;;;4.27;;
26211;SDS011;13951;49.516;6.094;2023-03-03T06:19:53;5.10;;;3.80;;
26211;SDS011;13951;49.516;6.094;2023-03-03T06:22:26;6.90;;;3.97;;
26211;SDS011;13951;49.516;6.094;2023-03-03T06:24:59;6.47;;;3.50;;
26211;SDS011;13951;49.516;6.094;2023-03-03T06:27:31;7.83;;;4.47;;
26211;SDS011;13951;49.516;6.094;2023-03-03T06:30:04;10.37;;;3.63;;
26211;SDS011;13951;49.516;6.094;2023-03-03T06:32:38;9.10;;;4.63;;
26211;SDS011;13951;49.516;6.094;2023-03-03T06:35:10;7.43;;;4.00;;
26211;SDS011;13951;49.516;6.094;2023-03-03T06:37:43;7.20;;;3.57;;
26211;SDS011;13951;49.516;6.094;2023-03-03T06:40:16;6.73;;;4.47;;
26211;SDS011;13951;49.516;6.094;2023-03-03T06:42:49;6.77;;;3.90;;
26211;SDS011;13951;49.516;6.094;2023-03-03T06:45:22;4.87;;;3.47;;
26211;SDS011;13951;49.516;6.094;2023-03-03T06:47:54;9.70;;;4.07;;
26211;SDS011;13951;49.516;6.094;2023-03-03T06:50:27;7.43;;;3.80;;
26211;SDS011;13951;49.516;6.094;2023-03-03T06:55:44;6.93;;;4.27;;
26211;SDS011;13951;49.516;6.094;2023-03-03T06:58:18;11.33;;;4.47;;
26211;SDS011;13951;49.516;6.094;2023-03-03T07:00:53;6.67;;;4.10;;
26211;SDS011;13951;49.516;6.094;2023-03-03T07:03:32;6.27;;;3.40;;
26211;SDS011;13951;49.516;6.094;2023-03-03T07:06:19;9.60;;;4.83;;
26211;SDS011;13951;49.516;6.094;2023-03-03T07:08:57;5.33;;;3.47;;
26211;SDS011;13951;49.516;6.094;2023-03-03T07:11:30;6.37;;;3.43;;
26211;SDS011;13951;49.516;6.094;2023-03-03T07:14:04;7.40;;;4.37;;
26211;SDS011;13951;49.516;6.094;2023-03-03T07:16:45;6.37;;;3.97;;
26211;SDS011;13951;49.516;6.094;2023-03-03T07:19:26;9.73;;;4.20;;
26211;SDS011;13951;49.516;6.094;2023-03-03T07:22:11;9.50;;;3.90;;
26211;SDS011;13951;49.516;6.094;2023-03-03T07:24:47;9.87;;;4.17;;
26211;SDS011;13951;49.516;6.094;2023-03-03T07:27:25;9.40;;;4.63;;
26211;SDS011;13951;49.516;6.094;2023-03-03T07:30:08;9.90;;;4.20;;
26211;SDS011;13951;49.516;6.094;2023-03-03T07:32:53;8.67;;;4.57;;
26211;SDS011;13951;49.516;6.094;2023-03-03T07:38:15;9.60;;;4.30;;
26211;SDS011;13951;49.516;6.094;2023-03-03T07:40:52;13.90;;;4.70;;
26211;SDS011;13951;49.516;6.094;2023-03-03T07:43:33;10.47;;;4.50;;
26211;SDS011;13951;49.516;6.094;2023-03-03T07:49:22;10.43;;;4.90;;
26211;SDS011;13951;49.516;6.094;2023-03-03T07:54:59;7.97;;;4.63;;
26211;SDS011;13951;49.516;6.094;2023-03-03T07:57:34;13.43;;;6.27;;
26211;SDS011;13951;49.516;6.094;2023-03-03T08:02:49;13.67;;;6.97;;
26211;SDS011;13951;49.516;6.094;2023-03-03T08:05:36;12.60;;;6.50;;
26211;SDS011;13951;49.516;6.094;2023-03-03T08:08:14;11.40;;;6.27;;
26211;SDS011;13951;49.516;6.094;2023-03-03T08:11:20;14.63;;;7.20;;
26211;SDS011;13951;49.516;6.094;2023-03-03T08:13:53;14.90;;;7.87;;
26211;SDS011;13951;49.516;6.094;2023-03-03T08:16:34;13.77;;;6.13;;
26211;SDS011;13951;49.516;6.094;2023-03-03T08:19:09;15.87;;;8.27;;
26211;SDS011;13951;49.516;6.094;2023-03-03T08:21:43;19.38;;;9.90;;
26211;SDS011;13951;49.516;6.094;2023-03-03T08:24:16;20.13;;;9.23;;
26211;SDS011;13951;49.516;6.094;2023-03-03T08:26:48;15.50;;;8.27;;
26211;SDS011;13951;49.516;6.094;2023-03-03T08:29:22;16.03;;;7.50;;
26211;SDS011;13951;49.516;6.094;2023-03-03T08:31:54;20.57;;;9.20;;
26211;SDS011;13951;49.516;6.094;2023-03-03T08:34:27;15.37;;;6.63;;
26211;SDS011;13951;49.516;6.094;2023-03-03T08:37:00;14.73;;;7.67;;
26211;SDS011;13951;49.516;6.094;2023-03-03T08:39:32;17.43;;;8.07;;
26211;SDS011;13951;49.516;6.094;2023-03-03T08:42:05;15.97;;;8.03;;
26211;SDS011;13951;49.516;6.094;2023-03-03T08:44:38;14.30;;;7.93;;
26211;SDS011;13951;49.516;6.094;2023-03-03T08:47:11;16.17;;;8.57;;
26211;SDS011;13951;49.516;6.094;2023-03-03T08:49:43;17.30;;;8.30;;
26211;SDS011;13951;49.516;6.094;2023-03-03T08:52:16;16.80;;;8.80;;
26211;SDS011;13951;49.516;6.094;2023-03-03T08:54:49;14.30;;;6.83;;
26211;SDS011;13951;49.516;6.094;2023-03-03T08:57:22;19.17;;;8.70;;
26211;SDS011;13951;49.516;6.094;2023-03-03T08:59:54;13.77;;;7.10;;
26211;SDS011;13951;49.516;6.094;2023-03-03T09:02:52;15.07;;;7.80;;
26211;SDS011;13951;49.516;6.094;2023-03-03T09:05:25;15.17;;;8.10;;
26211;SDS011;13951;49.516;6.094;2023-03-03T09:07:59;16.13;;;8.30;;
26211;SDS011;13951;49.516;6.094;2023-03-03T09:10:32;18.10;;;8.43;;
26211;SDS011;13951;49.516;6.094;2023-03-03T09:13:10;16.63;;;8.70;;
26211;SDS011;13951;49.516;6.094;2023-03-03T09:15:46;14.73;;;7.53;;
26211;SDS011;13951;49.516;6.094;2023-03-03T09:18:21;15.37;;;7.47;;
26211;SDS011;13951;49.516;6.094;2023-03-03T09:21:14;17.30;;;9.00;;
26211;SDS011;13951;49.516;6.094;2023-03-03T09:23:58;16.53;;;7.13;;
26211;SDS011;13951;49.516;6.094;2023-03-03T09:31:50;16.60;;;8.43;;
26211;SDS011;13951;49.516;6.094;2023-03-03T09:37:21;18.50;;;8.90;;
26211;SDS011;13951;49.516;6.094;2023-03-03T09:40:11;16.30;;;8.23;;
26211;SDS011;13951;49.516;6.094;2023-03-03T09:43:14;17.57;;;7.80;;
26211;SDS011;13951;49.516;6.094;2023-03-03T09:52:09;16.93;;;8.33;;
26211;SDS011;13951;49.516;6.094;2023-03-03T09:58:10;16.43;;;8.90;;
26211;SDS011;13951;49.516;6.094;2023-03-03T10:00:52;17.07;;;9.37;;
26211;SDS011;13951;49.516;6.094;2023-03-03T10:15:42;15.07;;;8.63;;
26211;SDS011;13951;49.516;6.094;2023-03-03T10:18:38;18.13;;;9.33;;
26211;SDS011;13951;49.516;6.094;2023-03-03T10:24:26;18.07;;;8.40;;
26211;SDS011;13951;49.516;6.094;2023-03-03T10:44:36;17.50;;;9.80;;
26211;SDS011;13951;49.516;6.094;2023-03-03T10:53:12;17.90;;;8.30;;
26211;SDS011;13951;49.516;6.094;2023-03-03T11:02:17;15.20;;;8.63;;
26211;SDS011;13951;49.516;6.094;2023-03-03T11:05:08;22.30;;;9.17;;
26211;SDS011;13951;49.516;6.094;2023-03-03T11:25:07;17.47;;;9.23;;
26211;SDS011;13951;49.516;6.094;2023-03-03T11:34:09;19.70;;;9.40;;
26211;SDS011;13951;49.516;6.094;2023-03-03T11:36:55;17.30;;;9.60;;
26211;SDS011;13951;49.516;6.094;2023-03-03T11:39:35;21.13;;;8.40;;
26211;SDS011;13951;49.516;6.094;2023-03-03T11:42:13;16.13;;;8.03;;
26211;SDS011;13951;49.516;6.094;2023-03-03T11:44:58;17.00;;;8.83;;
26211;SDS011;13951;49.516;6.094;2023-03-03T11:47:58;21.00;;;8.70;;
26211;SDS011;13951;49.516;6.094;2023-03-03T11:56:09;18.80;;;9.60;;
26211;SDS011;13951;49.516;6.094;2023-03-03T12:01:56;17.57;;;9.27;;
26211;SDS011;13951;49.516;6.094;2023-03-03T12:04:46;19.10;;;10.67;;
26211;SDS011;13951;49.516;6.094;2023-03-03T12:07:30;18.73;;;10.60;;
26211;SDS011;13951;49.516;6.094;2023-03-03T12:10:26;19.67;;;10.27;;
26211;SDS011;13951;49.516;6.094;2023-03-03T12:18:59;20.07;;;10.23;;
26211;SDS011;13951;49.516;6.094;2023-03-03T12:24:45;18.50;;;9.80;;
26211;SDS011;13951;49.516;6.094;2023-03-03T12:33:11;16.33;;;9.30;;
26211;SDS011;13951;49.516;6.094;2023-03-03T12:36:39;19.30;;;9.83;;
26211;SDS011;13951;49.516;6.094;2023-03-03T12:39:02;18.37;;;9.77;;
26211;SDS011;13951;49.516;6.094;2023-03-03T12:41:41;16.73;;;9.33;;
26211;SDS011;13951;49.516;6.094;2023-03-03T12:44:21;14.37;;;9.10;;
26211;SDS011;13951;49.516;6.094;2023-03-03T12:47:02;18.50;;;10.20;;
26211;SDS011;13951;49.516;6.094;2023-03-03T12:55:55;16.75;;;8.65;;
26211;SDS011;13951;49.516;6.094;2023-03-03T12:58:32;19.17;;;9.75;;
26211;SDS011;13951;49.516;6.094;2023-03-03T13:01:18;19.45;;;9.75;;
26211;SDS011;13951;49.516;6.094;2023-03-03T13:07:03;17.30;;;10.60;;
26211;SDS011;13951;49.516;6.094;2023-03-03T13:13:09;16.38;;;8.00;;
26211;SDS011;13951;49.516;6.094;2023-03-03T13:21:18;14.87;;;7.60;;
26211;SDS011;13951;49.516;6.094;2023-03-03T13:26:45;16.50;;;8.33;;
26211;SDS011;13951;49.516;6.094;2023-03-03T13:32:44;16.20;;;7.57;;
26211;SDS011;13951;49.516;6.094;2023-03-03T13:37:40;8.57;;;4.47;;
26211;SDS011;13951;49.516;6.094;2023-03-03T13:40:20;11.83;;;5.30;;
26211;SDS011;13951;49.516;6.094;2023-03-03T13:43:02;13.47;;;5.47;;
26211;SDS011;13951;49.516;6.094;2023-03-03T13:51:58;10.10;;;5.23;;
26211;SDS011;13951;49.516;6.094;2023-03-03T13:54:47;12.20;;;4.63;;
26211;SDS011;13951;49.516;6.094;2023-03-03T13:57:43;9.53;;;4.47;;
26211;SDS011;13951;49.516;6.094;2023-03-03T14:03:18;9.07;;;4.20;;
26211;SDS011;13951;49.516;6.094;2023-03-03T14:06:23;9.13;;;4.50;;
26211;SDS011;13951;49.516;6.094;2023-03-03T14:11:48;9.98;;;5.40;;
26211;SDS011;13951;49.516;6.094;2023-03-03T14:17:47;9.23;;;4.33;;
26211;SDS011;13951;49.516;6.094;2023-03-03T14:20:35;9.07;;;4.43;;
26211;SDS011;13951;49.516;6.094;2023-03-03T14:26:10;9.97;;;4.63;;
26211;SDS011;13951;49.516;6.094;2023-03-03T14:28:47;8.13;;;4.27;;
26211;SDS011;13951;49.516;6.094;2023-03-03T14:31:28;9.93;;;4.27;;
26211;SDS011;13951;49.516;6.094;2023-03-03T14:34:25;9.43;;;3.90;;
26211;SDS011;13951;49.516;6.094;2023-03-03T14:37:20;10.17;;;3.73;;
26211;SDS011;13951;49.516;6.094;2023-03-03T14:45:35;7.47;;;3.60;;
26211;SDS011;13951;49.516;6.094;2023-03-03T14:51:14;7.17;;;3.80;;
26211;SDS011;13951;49.516;6.094;2023-03-03T14:54:01;7.97;;;3.53;;
26211;SDS011;13951;49.516;6.094;2023-03-03T15:07:57;6.50;;;3.17;;
26211;SDS011;13951;49.516;6.094;2023-03-03T15:10:42;6.27;;;3.00;;
26211;SDS011;13951;49.516;6.094;2023-03-03T15:18:31;9.40;;;4.30;;
26211;SDS011;13951;49.516;6.094;2023-03-03T15:21:24;10.13;;;4.17;;
26211;SDS011;13951;49.516;6.094;2023-03-03T15:27:32;9.33;;;3.20;;
26211;SDS011;13951;49.516;6.094;2023-03-03T15:33:33;6.20;;;2.93;;
26211;SDS011;13951;49.516;6.094;2023-03-03T15:36:12;5.00;;;2.53;;
26211;SDS011;13951;49.516;6.094;2023-03-03T15:50:42;5.07;;;2.40;;
26211;SDS011;13951;49.516;6.094;2023-03-03T15:53:26;5.33;;;2.73;;
26211;SDS011;13951;49.516;6.094;2023-03-03T15:56:32;3.73;;;2.47;;
26211;SDS011;13951;49.516;6.094;2023-03-03T16:05:38;5.43;;;2.43;;
26211;SDS011;13951;49.516;6.094;2023-03-03T16:08:21;6.70;;;2.90;;
26211;SDS011;13951;49.516;6.094;2023-03-03T16:11:20;5.67;;;2.67;;
26211;SDS011;13951;49.516;6.094;2023-03-03T16:16:42;8.53;;;3.47;;
26211;SDS011;13951;49.516;6.094;2023-03-03T16:21:59;6.97;;;3.23;;
26211;SDS011;13951;49.516;6.094;2023-03-03T16:28:13;6.23;;;3.37;;
26211;SDS011;13951;49.516;6.094;2023-03-03T16:30:49;6.33;;;3.30;;
26211;SDS011;13951;49.516;6.094;2023-03-03T16:36:21;5.30;;;3.30;;
26211;SDS011;13951;49.516;6.094;2023-03-03T16:39:12;7.03;;;3.63;;
26211;SDS011;13951;49.516;6.094;2023-03-03T16:48:05;8.90;;;4.40;;
26211;SDS011;13951;49.516;6.094;2023-03-03T16:51:00;8.80;;;3.43;;
26211;SDS011;13951;49.516;6.094;2023-03-03T16:53:50;9.40;;;4.40;;
26211;SDS011;13951;49.516;6.094;2023-03-03T16:56:40;6.70;;;3.47;;
26211;SDS011;13951;49.516;6.094;2023-03-03T16:59:38;9.13;;;4.17;;
26211;SDS011;13951;49.516;6.094;2023-03-03T17:02:23;8.67;;;3.83;;
26211;SDS011;13951;49.516;6.094;2023-03-03T17:05:05;8.70;;;3.67;;
26211;SDS011;13951;49.516;6.094;2023-03-03T17:08:05;8.90;;;4.07;;
26211;SDS011;13951;49.516;6.094;2023-03-03T17:11:08;8.10;;;3.87;;
26211;SDS011;13951;49.516;6.094;2023-03-03T17:14:02;14.30;;;6.30;;
26211;SDS011;13951;49.516;6.094;2023-03-03T17:22:13;8.57;;;4.43;;
26211;SDS011;13951;49.516;6.094;2023-03-03T17:24:59;11.97;;;5.20;;
26211;SDS011;13951;49.516;6.094;2023-03-03T17:30:40;8.50;;;3.27;;
26211;SDS011;13951;49.516;6.094;2023-03-03T17:33:25;7.50;;;3.40;;
26211;SDS011;13951;49.516;6.094;2023-03-03T17:41:51;7.87;;;3.70;;
26211;SDS011;13951;49.516;6.094;2023-03-03T17:47:12;6.97;;;3.50;;
26211;SDS011;13951;49.516;6.094;2023-03-03T17:50:16;7.53;;;3.37;;
26211;SDS011;13951;49.516;6.094;2023-03-03T17:56:19;7.17;;;3.70;;
26211;SDS011;13951;49.516;6.094;2023-03-03T18:05:13;7.13;;;3.53;;
26211;SDS011;13951;49.516;6.094;2023-03-03T18:11:52;9.88;;;5.28;;
26211;SDS011;13951;49.516;6.094;2023-03-03T18:26:00;11.03;;;5.13;;
26211;SDS011;13951;49.516;6.094;2023-03-03T18:29:04;9.30;;;4.50;;
26211;SDS011;13951;49.516;6.094;2023-03-03T18:34:35;11.93;;;6.47;;
26211;SDS011;13951;49.516;6.094;2023-03-03T18:37:33;17.03;;;7.80;;
26211;SDS011;13951;49.516;6.094;2023-03-03T18:42:37;18.13;;;7.60;;
26211;SDS011;13951;49.516;6.094;2023-03-03T18:50:33;18.90;;;7.63;;
26211;SDS011;13951;49.516;6.094;2023-03-03T18:53:09;17.40;;;7.40;;
26211;SDS011;13951;49.516;6.094;2023-03-03T18:58:43;20.77;;;7.73;;
26211;SDS011;13951;49.516;6.094;2023-03-03T19:01:33;18.40;;;6.77;;
26211;SDS011;13951;49.516;6.094;2023-03-03T19:18:03;20.90;;;8.50;;
26211;SDS011;13951;49.516;6.094;2023-03-03T19:20:41;17.83;;;8.10;;
26211;SDS011;13951;49.516;6.094;2023-03-03T19:31:52;24.65;;;10.50;;
26211;SDS011;13951;49.516;6.094;2023-03-03T19:40:20;25.67;;;10.03;;
26211;SDS011;13951;49.516;6.094;2023-03-03T19:42:59;26.00;;;10.17;;
26211;SDS011;13951;49.516;6.094;2023-03-03T19:52:06;29.63;;;12.40;;
26211;SDS011;13951;49.516;6.094;2023-03-03T20:00:45;21.10;;;6.90;;
26211;SDS011;13951;49.516;6.094;2023-03-03T20:08:43;20.67;;;7.77;;
26211;SDS011;13951;49.516;6.094;2023-03-03T20:41:36;20.17;;;7.43;;
26211;SDS011;13951;49.516;6.094;2023-03-03T20:44:43;18.13;;;6.83;;
26211;SDS011;13951;49.516;6.094;2023-03-03T20:47:22;19.43;;;7.23;;
26211;SDS011;13951;49.516;6.094;2023-03-03T20:50:18;20.17;;;6.90;;
26211;SDS011;13951;49.516;6.094;2023-03-03T20:53:20;21.13;;;7.90;;
26211;SDS011;13951;49.516;6.094;2023-03-03T20:56:18;23.53;;;8.23;;
26211;SDS011;13951;49.516;6.094;2023-03-03T21:02:06;29.27;;;8.43;;
26211;SDS011;13951;49.516;6.094;2023-03-03T21:05:09;22.50;;;7.57;;
26211;SDS011;13951;49.516;6.094;2023-03-03T21:07:55;19.70;;;7.10;;
26211;SDS011;13951;49.516;6.094;2023-03-03T21:10:36;18.83;;;5.83;;
26211;SDS011;13951;49.516;6.094;2023-03-03T21:13:25;28.87;;;8.40;;
26211;SDS011;13951;49.516;6.094;2023-03-03T21:18:59;23.63;;;7.13;;
26211;SDS011;13951;49.516;6.094;2023-03-03T21:21:38;21.27;;;7.77;;
26211;SDS011;13951;49.516;6.094;2023-03-03T21:24:12;26.60;;;7.27;;
26211;SDS011;13951;49.516;6.094;2023-03-03T21:29:33;20.23;;;6.77;;
26211;SDS011;13951;49.516;6.094;2023-03-03T21:32:07;21.30;;;7.50;;
26211;SDS011;13951;49.516;6.094;2023-03-03T21:34:41;19.40;;;7.30;;
26211;SDS011;13951;49.516;6.094;2023-03-03T21:37:14;22.83;;;7.23;;
26211;SDS011;13951;49.516;6.094;2023-03-03T21:40:15;22.00;;;8.63;;
26211;SDS011;13951;49.516;6.094;2023-03-03T21:42:57;21.13;;;7.43;;
26211;SDS011;13951;49.516;6.094;2023-03-03T21:45:30;19.47;;;7.77;;
26211;SDS011;13951;49.516;6.094;2023-03-03T21:48:03;25.57;;;8.50;;
26211;SDS011;13951;49.516;6.094;2023-03-03T21:50:36;26.13;;;7.80;;
26211;SDS011;13951;49.516;6.094;2023-03-03T21:53:12;28.20;;;7.70;;
26211;SDS011;13951;49.516;6.094;2023-03-03T21:55:45;24.23;;;8.30;;
26211;SDS011;13951;49.516;6.094;2023-03-03T21:58:20;24.23;;;8.77;;
26211;SDS011;13951;49.516;6.094;2023-03-03T22:00:53;22.97;;;8.40;;
26211;SDS011;13951;49.516;6.094;2023-03-03T22:03:26;27.13;;;9.07;;
26211;SDS011;13951;49.516;6.094;2023-03-03T22:05:59;30.13;;;7.83;;
26211;SDS011;13951;49.516;6.094;2023-03-03T22:08:33;22.10;;;8.30;;
26211;SDS011;13951;49.516;6.094;2023-03-03T22:11:06;23.80;;;7.37;;
26211;SDS011;13951;49.516;6.094;2023-03-03T22:13:39;24.53;;;9.37;;
26211;SDS011;13951;49.516;6.094;2023-03-03T22:16:12;30.20;;;10.03;;
26211;SDS011;13951;49.516;6.094;2023-03-03T22:18:45;26.83;;;8.17;;
26211;SDS011;13951;49.516;6.094;2023-03-03T22:21:18;26.30;;;9.20;;
26211;SDS011;13951;49.516;6.094;2023-03-03T22:23:51;27.17;;;9.83;;